GLO1017 SBRJ-SBSP
Flight info
| Callsign | GLO1017 |
|---|---|
| Flight time | 0h 44m |
| Altitude | 32000 |
| Route | NAXOP UZ45 IBDAL |
| Aircraft | B738/M-SDE2E3FGHIRWXY/LB1 |
Departure
| Time | 2026-05-01 14:24 |
|---|---|
| Airport | Santos Dumont Airport (SBRJ) |
Arrival
| Time | 2026-05-01 15:08 |
|---|---|
| Airport | Congonhas–Deputado Freitas Nobre Airport (SBSP) |
| Time | Latitude | Longitude | Altitude | Speed | Heading |
|---|---|---|---|---|---|
| 2026-05-01 13:59 | -22.91209 | -43.16580 | 21 ft | 0 kts | 267° |
| 2026-05-01 14:10 | -22.91208 | -43.16568 | 21 ft | 2 kts | 268° |
| 2026-05-01 14:10 | -22.91207 | -43.16550 | 25 ft | 2 kts | 259° |
| 2026-05-01 14:10 | -22.91204 | -43.16538 | 24 ft | 1 kts | 249° |
| 2026-05-01 14:11 | -22.91204 | -43.16537 | 24 ft | 0 kts | 249° |
| 2026-05-01 14:13 | -22.91201 | -43.16525 | 24 ft | 2 kts | 291° |
| 2026-05-01 14:13 | -22.91208 | -43.16516 | 24 ft | 2 kts | 340° |
| 2026-05-01 14:13 | -22.91225 | -43.16512 | 23 ft | 1 kts | 356° |
| 2026-05-01 14:13 | -22.91228 | -43.16512 | 23 ft | 0 kts | 357° |
| 2026-05-01 14:16 | -22.91217 | -43.16513 | 23 ft | 6 kts | 357° |
| 2026-05-01 14:16 | -22.91142 | -43.16518 | 21 ft | 15 kts | 355° |
| 2026-05-01 14:17 | -22.91033 | -43.16536 | 24 ft | 17 kts | 356° |
| 2026-05-01 14:17 | -22.90911 | -43.16546 | 23 ft | 19 kts | 356° |
| 2026-05-01 14:17 | -22.90786 | -43.16542 | 21 ft | 18 kts | 2° |
| 2026-05-01 14:17 | -22.90656 | -43.16548 | 21 ft | 19 kts | 357° |
| 2026-05-01 14:18 | -22.90542 | -43.16555 | 21 ft | 13 kts | 356° |
| 2026-05-01 14:18 | -22.90499 | -43.16510 | 21 ft | 9 kts | 86° |
| 2026-05-01 14:18 | -22.90498 | -43.16498 | 21 ft | 0 kts | 86° |
| 2026-05-01 14:20 | -22.90498 | -43.16497 | 21 ft | 1 kts | 86° |
| 2026-05-01 14:20 | -22.90498 | -43.16495 | 21 ft | 0 kts | 86° |
| 2026-05-01 14:20 | -22.90498 | -43.16494 | 21 ft | 0 kts | 87° |
| 2026-05-01 14:22 | -22.90498 | -43.16493 | 21 ft | 0 kts | 88° |
| 2026-05-01 14:22 | -22.90498 | -43.16484 | 22 ft | 4 kts | 87° |
| 2026-05-01 14:22 | -22.90495 | -43.16451 | 22 ft | 4 kts | 86° |
| 2026-05-01 14:22 | -22.90493 | -43.16417 | 23 ft | 4 kts | 79° |
| 2026-05-01 14:23 | -22.90476 | -43.16364 | 23 ft | 10 kts | 71° |
| 2026-05-01 14:23 | -22.90517 | -43.16317 | 27 ft | 10 kts | 175° |
| 2026-05-01 14:23 | -22.90595 | -43.16313 | 26 ft | 24 kts | 176° |
| 2026-05-01 14:23 | -22.91080 | -43.16281 | 21 ft | 112 kts | 176° |
| 2026-05-01 14:24 | -22.92091 | -43.16200 | 135 ft | 171 kts | 174° |
| 2026-05-01 14:24 | -22.93270 | -43.15809 | 799 ft | 196 kts | 146° |
| 2026-05-01 14:24 | -22.94275 | -43.14686 | 1434 ft | 208 kts | 122° |
| 2026-05-01 14:24 | -22.94776 | -43.13283 | 2509 ft | 193 kts | 98° |
| 2026-05-01 14:25 | -22.95283 | -43.11957 | 3196 ft | 205 kts | 133° |
| 2026-05-01 14:25 | -22.96554 | -43.11042 | 3425 ft | 232 kts | 149° |
| 2026-05-01 14:25 | -22.97989 | -43.10057 | 3681 ft | 259 kts | 150° |
| 2026-05-01 14:25 | -22.99770 | -43.09646 | 4318 ft | 271 kts | 186° |
| 2026-05-01 14:26 | -23.01545 | -43.10374 | 5130 ft | 276 kts | 213° |
| 2026-05-01 14:26 | -23.04541 | -43.13068 | 6752 ft | 283 kts | 220° |
| 2026-05-01 14:26 | -23.06039 | -43.14447 | 7490 ft | 287 kts | 220° |
| 2026-05-01 14:27 | -23.07551 | -43.15865 | 8110 ft | 282 kts | 227° |
| 2026-05-01 14:27 | -23.08609 | -43.17666 | 8767 ft | 290 kts | 245° |
| 2026-05-01 14:27 | -23.09473 | -43.19678 | 9499 ft | 295 kts | 246° |
| 2026-05-01 14:28 | -23.11211 | -43.23814 | 10662 ft | 315 kts | 246° |
| 2026-05-01 14:28 | -23.12170 | -43.26062 | 10820 ft | 339 kts | 245° |
| 2026-05-01 14:28 | -23.13192 | -43.28428 | 10978 ft | 359 kts | 245° |
| 2026-05-01 14:28 | -23.14298 | -43.30966 | 11162 ft | 377 kts | 245° |
| 2026-05-01 14:29 | -23.15429 | -43.33543 | 11580 ft | 384 kts | 245° |
| 2026-05-01 14:29 | -23.16590 | -43.36176 | 12214 ft | 385 kts | 245° |
| 2026-05-01 14:30 | -23.20079 | -43.44070 | 13988 ft | 390 kts | 244° |
| 2026-05-01 14:30 | -23.21261 | -43.46744 | 14446 ft | 393 kts | 244° |
| 2026-05-01 14:30 | -23.22440 | -43.49412 | 14946 ft | 394 kts | 245° |
| 2026-05-01 14:31 | -23.24811 | -43.54786 | 15928 ft | 397 kts | 245° |
| 2026-05-01 14:31 | -23.26013 | -43.57511 | 16380 ft | 399 kts | 245° |
| 2026-05-01 14:31 | -23.27211 | -43.60231 | 16836 ft | 401 kts | 245° |
| 2026-05-01 14:31 | -23.28424 | -43.62985 | 17285 ft | 403 kts | 245° |
| 2026-05-01 14:32 | -23.29632 | -43.65730 | 17727 ft | 405 kts | 245° |
| 2026-05-01 14:32 | -23.30862 | -43.68528 | 18186 ft | 407 kts | 245° |
| 2026-05-01 14:32 | -23.32084 | -43.71308 | 18603 ft | 408 kts | 245° |
| 2026-05-01 14:32 | -23.33302 | -43.74078 | 18967 ft | 410 kts | 245° |
| 2026-05-01 14:33 | -23.34530 | -43.76875 | 19330 ft | 412 kts | 245° |
| 2026-05-01 14:33 | -23.35778 | -43.79720 | 19693 ft | 414 kts | 245° |
| 2026-05-01 14:33 | -23.37010 | -43.82530 | 20054 ft | 416 kts | 245° |
| 2026-05-01 14:33 | -23.38270 | -43.85404 | 20409 ft | 418 kts | 245° |
| 2026-05-01 14:34 | -23.39518 | -43.88254 | 20759 ft | 420 kts | 245° |
| 2026-05-01 14:34 | -23.40782 | -43.91142 | 21095 ft | 422 kts | 245° |
| 2026-05-01 14:34 | -23.42038 | -43.94012 | 21433 ft | 423 kts | 246° |
| 2026-05-01 14:34 | -23.43318 | -43.96940 | 21779 ft | 425 kts | 246° |
| 2026-05-01 14:35 | -23.44583 | -43.99836 | 22106 ft | 427 kts | 246° |
| 2026-05-01 14:35 | -23.45851 | -44.02738 | 22422 ft | 428 kts | 246° |
| 2026-05-01 14:35 | -23.47143 | -44.05699 | 22744 ft | 430 kts | 246° |
| 2026-05-01 14:35 | -23.48433 | -44.08656 | 23049 ft | 432 kts | 246° |
| 2026-05-01 14:36 | -23.49711 | -44.11589 | 23337 ft | 434 kts | 246° |
| 2026-05-01 14:36 | -23.51009 | -44.14587 | 23479 ft | 438 kts | 247° |
| 2026-05-01 14:36 | -23.52060 | -44.17731 | 23434 ft | 437 kts | 256° |
| 2026-05-01 14:36 | -23.52797 | -44.20893 | 23429 ft | 433 kts | 257° |
| 2026-05-01 14:37 | -23.53506 | -44.24091 | 23423 ft | 432 kts | 257° |
| 2026-05-01 14:37 | -23.54210 | -44.27288 | 23437 ft | 433 kts | 257° |
| 2026-05-01 14:37 | -23.54920 | -44.30494 | 23434 ft | 434 kts | 257° |
| 2026-05-01 14:37 | -23.55635 | -44.33687 | 23537 ft | 437 kts | 257° |
| 2026-05-01 14:38 | -23.56356 | -44.36879 | 23931 ft | 434 kts | 257° |
| 2026-05-01 14:38 | -23.57084 | -44.40078 | 24326 ft | 432 kts | 257° |
| 2026-05-01 14:38 | -23.57809 | -44.43261 | 24621 ft | 432 kts | 257° |
| 2026-05-01 14:38 | -23.58530 | -44.46427 | 24854 ft | 434 kts | 257° |
| 2026-05-01 14:39 | -23.59261 | -44.49635 | 25100 ft | 436 kts | 257° |
| 2026-05-01 14:39 | -23.59994 | -44.52858 | 25344 ft | 437 kts | 257° |
| 2026-05-01 14:39 | -23.60719 | -44.56047 | 25593 ft | 438 kts | 257° |
| 2026-05-01 14:39 | -23.61455 | -44.59290 | 25842 ft | 439 kts | 257° |
| 2026-05-01 14:40 | -23.62184 | -44.62507 | 26089 ft | 440 kts | 257° |
| 2026-05-01 14:40 | -23.62923 | -44.65773 | 26162 ft | 443 kts | 257° |
| 2026-05-01 14:40 | -23.63665 | -44.69054 | 26170 ft | 443 kts | 257° |
| 2026-05-01 14:40 | -23.64397 | -44.72291 | 26168 ft | 439 kts | 257° |
| 2026-05-01 14:41 | -23.65119 | -44.75488 | 26147 ft | 438 kts | 257° |
| 2026-05-01 14:41 | -23.65846 | -44.78713 | 26159 ft | 437 kts | 257° |
| 2026-05-01 14:41 | -23.66570 | -44.81924 | 26161 ft | 437 kts | 257° |
| 2026-05-01 14:41 | -23.67300 | -44.85169 | 26164 ft | 438 kts | 257° |
| 2026-05-01 14:42 | -23.68026 | -44.88401 | 26158 ft | 438 kts | 257° |
| 2026-05-01 14:42 | -23.68752 | -44.91632 | 26159 ft | 438 kts | 257° |
| 2026-05-01 14:42 | -23.69468 | -44.94826 | 26164 ft | 437 kts | 257° |
| 2026-05-01 14:42 | -23.70193 | -44.98058 | 26161 ft | 437 kts | 257° |
| 2026-05-01 14:43 | -23.70914 | -45.01280 | 26058 ft | 433 kts | 257° |
| 2026-05-01 14:43 | -23.71620 | -45.04434 | 26098 ft | 431 kts | 257° |
| 2026-05-01 14:43 | -23.72333 | -45.07629 | 26098 ft | 433 kts | 257° |
| 2026-05-01 14:43 | -23.73050 | -45.10844 | 26102 ft | 434 kts | 257° |
| 2026-05-01 14:44 | -23.73759 | -45.14026 | 26101 ft | 433 kts | 257° |
| 2026-05-01 14:44 | -23.75181 | -45.20408 | 26103 ft | 432 kts | 257° |
| 2026-05-01 14:44 | -23.75889 | -45.23594 | 26104 ft | 432 kts | 257° |
| 2026-05-01 14:45 | -23.76599 | -45.26787 | 26104 ft | 432 kts | 257° |
| 2026-05-01 14:45 | -23.78012 | -45.33135 | 26107 ft | 432 kts | 257° |
| 2026-05-01 14:45 | -23.78725 | -45.36339 | 26111 ft | 433 kts | 257° |
| 2026-05-01 14:46 | -23.79429 | -45.39512 | 26101 ft | 433 kts | 257° |
| 2026-05-01 14:46 | -23.80848 | -45.45929 | 25564 ft | 429 kts | 257° |
| 2026-05-01 14:46 | -23.81535 | -45.49050 | 25137 ft | 423 kts | 257° |
| 2026-05-01 14:47 | -23.82218 | -45.52157 | 24761 ft | 416 kts | 257° |
| 2026-05-01 14:47 | -23.82883 | -45.55183 | 24358 ft | 410 kts | 258° |
| 2026-05-01 14:47 | -23.83544 | -45.58198 | 23984 ft | 404 kts | 258° |
| 2026-05-01 14:48 | -23.84833 | -45.64087 | 23176 ft | 393 kts | 258° |
| 2026-05-01 14:48 | -23.85467 | -45.66985 | 22794 ft | 387 kts | 258° |
| 2026-05-01 14:48 | -23.86699 | -45.72622 | 22076 ft | 376 kts | 258° |
| 2026-05-01 14:49 | -23.87891 | -45.78090 | 21377 ft | 366 kts | 258° |
| 2026-05-01 14:49 | -23.89053 | -45.83431 | 20722 ft | 357 kts | 258° |
| 2026-05-01 14:50 | -23.89818 | -45.86948 | 20282 ft | 351 kts | 258° |
| 2026-05-01 14:50 | -23.91296 | -45.93765 | 19432 ft | 342 kts | 258° |
| 2026-05-01 14:51 | -23.91837 | -45.96260 | 19107 ft | 339 kts | 258° |
| 2026-05-01 14:51 | -23.92915 | -46.01244 | 18468 ft | 334 kts | 258° |
| 2026-05-01 14:52 | -23.93977 | -46.06164 | 17800 ft | 328 kts | 257° |
| 2026-05-01 14:52 | -23.94493 | -46.08551 | 17489 ft | 324 kts | 257° |
| 2026-05-01 14:52 | -23.95513 | -46.13287 | 16881 ft | 318 kts | 257° |
| 2026-05-01 14:53 | -23.96021 | -46.15649 | 16586 ft | 314 kts | 257° |
| 2026-05-01 14:53 | -23.96514 | -46.17942 | 16298 ft | 311 kts | 257° |
| 2026-05-01 14:53 | -23.97010 | -46.20247 | 16035 ft | 308 kts | 257° |
| 2026-05-01 14:53 | -23.97497 | -46.22513 | 15798 ft | 304 kts | 257° |
| 2026-05-01 14:54 | -23.97968 | -46.24723 | 15552 ft | 300 kts | 259° |
| 2026-05-01 14:54 | -23.98023 | -46.26991 | 15232 ft | 298 kts | 280° |
| 2026-05-01 14:54 | -23.97416 | -46.29146 | 14845 ft | 300 kts | 290° |
| 2026-05-01 14:54 | -23.96662 | -46.31299 | 14446 ft | 303 kts | 290° |
| 2026-05-01 14:55 | -23.95887 | -46.33456 | 14058 ft | 305 kts | 290° |
| 2026-05-01 14:55 | -23.95119 | -46.35601 | 13661 ft | 307 kts | 290° |
| 2026-05-01 14:55 | -23.94340 | -46.37793 | 13246 ft | 308 kts | 290° |
| 2026-05-01 14:55 | -23.93563 | -46.39993 | 12857 ft | 309 kts | 290° |
| 2026-05-01 14:56 | -23.92799 | -46.42169 | 12466 ft | 310 kts | 290° |
| 2026-05-01 14:56 | -23.92023 | -46.44383 | 12076 ft | 310 kts | 290° |
| 2026-05-01 14:56 | -23.91260 | -46.46564 | 11693 ft | 311 kts | 290° |
| 2026-05-01 14:56 | -23.90487 | -46.48774 | 11304 ft | 311 kts | 290° |
| 2026-05-01 14:57 | -23.89712 | -46.50988 | 11058 ft | 306 kts | 290° |
| 2026-05-01 14:57 | -23.88237 | -46.55202 | 10781 ft | 290 kts | 291° |
| 2026-05-01 14:57 | -23.87524 | -46.57238 | 10646 ft | 282 kts | 291° |
| 2026-05-01 14:58 | -23.86832 | -46.59213 | 10588 ft | 274 kts | 291° |
| 2026-05-01 14:58 | -23.86165 | -46.61112 | 10465 ft | 267 kts | 291° |
| 2026-05-01 14:58 | -23.85181 | -46.62823 | 10170 ft | 267 kts | 315° |
| 2026-05-01 14:58 | -23.83721 | -46.64054 | 9990 ft | 262 kts | 327° |
| 2026-05-01 14:59 | -23.82193 | -46.65084 | 9722 ft | 260 kts | 328° |
| 2026-05-01 14:59 | -23.80646 | -46.66117 | 9462 ft | 258 kts | 328° |
| 2026-05-01 14:59 | -23.79135 | -46.67143 | 9204 ft | 257 kts | 327° |
| 2026-05-01 14:59 | -23.77638 | -46.68170 | 9023 ft | 252 kts | 327° |
| 2026-05-01 15:00 | -23.75232 | -46.69831 | 8979 ft | 242 kts | 327° |
| 2026-05-01 15:00 | -23.73361 | -46.71129 | 8990 ft | 239 kts | 327° |
| 2026-05-01 15:00 | -23.71954 | -46.72104 | 8972 ft | 239 kts | 327° |
| 2026-05-01 15:01 | -23.70990 | -46.72773 | 8782 ft | 246 kts | 327° |
| 2026-05-01 15:01 | -23.69531 | -46.73784 | 8519 ft | 249 kts | 327° |
| 2026-05-01 15:01 | -23.68084 | -46.74788 | 8250 ft | 249 kts | 327° |
| 2026-05-01 15:01 | -23.66622 | -46.75801 | 7979 ft | 249 kts | 327° |
| 2026-05-01 15:02 | -23.65153 | -46.76819 | 7687 ft | 250 kts | 328° |
| 2026-05-01 15:02 | -23.64180 | -46.77494 | 7524 ft | 250 kts | 328° |
| 2026-05-01 15:02 | -23.62234 | -46.78842 | 7152 ft | 250 kts | 328° |
| 2026-05-01 15:02 | -23.60771 | -46.79854 | 6872 ft | 244 kts | 328° |
| 2026-05-01 15:03 | -23.59372 | -46.80822 | 6625 ft | 235 kts | 328° |
| 2026-05-01 15:03 | -23.57883 | -46.81418 | 6315 ft | 224 kts | 356° |
| 2026-05-01 15:03 | -23.56406 | -46.81154 | 6066 ft | 214 kts | 21° |
| 2026-05-01 15:03 | -23.55181 | -46.80302 | 5831 ft | 207 kts | 43° |
| 2026-05-01 15:04 | -23.54314 | -46.79091 | 5605 ft | 197 kts | 54° |
| 2026-05-01 15:04 | -23.53601 | -46.77876 | 5410 ft | 187 kts | 55° |
| 2026-05-01 15:04 | -23.52902 | -46.76671 | 5210 ft | 187 kts | 55° |
| 2026-05-01 15:04 | -23.52273 | -46.75454 | 4993 ft | 188 kts | 70° |
| 2026-05-01 15:05 | -23.52170 | -46.74042 | 4801 ft | 188 kts | 98° |
| 2026-05-01 15:05 | -23.52701 | -46.72747 | 4583 ft | 189 kts | 127° |
| 2026-05-01 15:05 | -23.53693 | -46.71872 | 4406 ft | 183 kts | 149° |
| 2026-05-01 15:05 | -23.54771 | -46.71160 | 4252 ft | 180 kts | 145° |
| 2026-05-01 15:06 | -23.55812 | -46.70420 | 3988 ft | 175 kts | 145° |
| 2026-05-01 15:06 | -23.56799 | -46.69731 | 3786 ft | 161 kts | 145° |
| 2026-05-01 15:06 | -23.57711 | -46.69098 | 3552 ft | 149 kts | 145° |
| 2026-05-01 15:06 | -23.58575 | -46.68496 | 3395 ft | 149 kts | 145° |
| 2026-05-01 15:07 | -23.59468 | -46.67874 | 3210 ft | 154 kts | 145° |
| 2026-05-01 15:07 | -23.60369 | -46.67250 | 3016 ft | 155 kts | 144° |
| 2026-05-01 15:07 | -23.61277 | -46.66612 | 2817 ft | 154 kts | 143° |
| 2026-05-01 15:07 | -23.62154 | -46.66003 | 2620 ft | 145 kts | 144° |
| 2026-05-01 15:08 | -23.62821 | -46.65540 | 2625 ft | 68 kts | 148° |
| 2026-05-01 15:08 | -23.63057 | -46.65380 | 2637 ft | 17 kts | 158° |
| 2026-05-01 15:08 | -23.63161 | -46.65385 | 2638 ft | 12 kts | 211° |
| 2026-05-01 15:08 | -23.63159 | -46.65448 | 2638 ft | 8 kts | 303° |
| 2026-05-01 15:09 | -23.63110 | -46.65482 | 2635 ft | 9 kts | 332° |
| 2026-05-01 15:09 | -23.63045 | -46.65515 | 2631 ft | 11 kts | 349° |
| 2026-05-01 15:09 | -23.62968 | -46.65545 | 2627 ft | 13 kts | 328° |
| 2026-05-01 15:09 | -23.62891 | -46.65599 | 2625 ft | 13 kts | 327° |
| 2026-05-01 15:10 | -23.62819 | -46.65648 | 2624 ft | 12 kts | 328° |
| 2026-05-01 15:10 | -23.62689 | -46.65744 | 2619 ft | 6 kts | 298° |
| 2026-05-01 15:10 | -23.62699 | -46.65782 | 2619 ft | 5 kts | 236° |
| 2026-05-01 15:11 | -23.62715 | -46.65810 | 2619 ft | 3 kts | 238° |
| 2026-05-01 15:11 | -23.62720 | -46.65819 | 2619 ft | 0 kts | 237° |